sensor_id;sensor_type;location;lat;lon;timestamp;temperature;humidity
16174;DHT22;14031;50.158;8.626;2023-07-30T00:00:43;21.00;99.90
16174;DHT22;14031;50.158;8.626;2023-07-30T00:03:10;20.90;99.90
16174;DHT22;14031;50.158;8.626;2023-07-30T00:05:38;20.90;99.90
16174;DHT22;14031;50.158;8.626;2023-07-30T00:08:07;20.80;99.90
16174;DHT22;14031;50.158;8.626;2023-07-30T00:10:37;20.80;99.90
16174;DHT22;14031;50.158;8.626;2023-07-30T00:13:05;20.80;99.90
16174;DHT22;14031;50.158;8.626;2023-07-30T00:15:37;20.70;99.90
16174;DHT22;14031;50.158;8.626;2023-07-30T00:18:04;20.70;99.90
16174;DHT22;14031;50.158;8.626;2023-07-30T00:20:31;20.70;99.90
16174;DHT22;14031;50.158;8.626;2023-07-30T00:23:00;20.70;99.90
16174;DHT22;14031;50.158;8.626;2023-07-30T00:25:29;20.70;99.90
16174;DHT22;14031;50.158;8.626;2023-07-30T00:28:01;20.70;99.90
16174;DHT22;14031;50.158;8.626;2023-07-30T00:30:30;20.60;99.90
16174;DHT22;14031;50.158;8.626;2023-07-30T00:33:00;20.60;99.90
16174;DHT22;14031;50.158;8.626;2023-07-30T00:35:28;20.60;99.90
16174;DHT22;14031;50.158;8.626;2023-07-30T00:38:01;20.50;99.90
16174;DHT22;14031;50.158;8.626;2023-07-30T00:40:28;20.50;99.90
16174;DHT22;14031;50.158;8.626;2023-07-30T00:42:55;20.50;99.90
16174;DHT22;14031;50.158;8.626;2023-07-30T00:45:27;20.50;99.90
16174;DHT22;14031;50.158;8.626;2023-07-30T00:47:55;20.50;99.90
16174;DHT22;14031;50.158;8.626;2023-07-30T00:50:26;20.50;99.90
16174;DHT22;14031;50.158;8.626;2023-07-30T00:52:53;20.50;99.90
16174;DHT22;14031;50.158;8.626;2023-07-30T00:55:21;20.60;99.90
16174;DHT22;14031;50.158;8.626;2023-07-30T00:57:49;20.50;99.90
16174;DHT22;14031;50.158;8.626;2023-07-30T01:00:19;20.60;99.90
16174;DHT22;14031;50.158;8.626;2023-07-30T01:02:49;20.50;99.90
16174;DHT22;14031;50.158;8.626;2023-07-30T01:05:16;20.60;99.90
16174;DHT22;14031;50.158;8.626;2023-07-30T01:07:42;20.60;99.90
16174;DHT22;14031;50.158;8.626;2023-07-30T01:10:09;20.50;99.90
16174;DHT22;14031;50.158;8.626;2023-07-30T01:12:37;20.50;99.90
16174;DHT22;14031;50.158;8.626;2023-07-30T01:15:05;20.50;99.90
16174;DHT22;14031;50.158;8.626;2023-07-30T01:17:32;20.50;99.90
16174;DHT22;14031;50.158;8.626;2023-07-30T01:20:00;20.50;99.90
16174;DHT22;14031;50.158;8.626;2023-07-30T01:22:29;20.50;99.90
16174;DHT22;14031;50.158;8.626;2023-07-30T01:24:55;20.50;99.90
16174;DHT22;14031;50.158;8.626;2023-07-30T01:27:26;20.50;99.90
16174;DHT22;14031;50.158;8.626;2023-07-30T01:30:00;20.40;99.90
16174;DHT22;14031;50.158;8.626;2023-07-30T01:32:29;20.50;99.90
16174;DHT22;14031;50.158;8.626;2023-07-30T01:34:58;20.50;99.90
16174;DHT22;14031;50.158;8.626;2023-07-30T01:37:29;20.40;99.90
16174;DHT22;14031;50.158;8.626;2023-07-30T01:39:56;20.50;99.90
16174;DHT22;14031;50.158;8.626;2023-07-30T01:42:28;20.50;99.90
16174;DHT22;14031;50.158;8.626;2023-07-30T01:44:55;20.60;99.90
16174;DHT22;14031;50.158;8.626;2023-07-30T01:47:21;20.60;99.90
16174;DHT22;14031;50.158;8.626;2023-07-30T01:49:48;20.50;99.90
16174;DHT22;14031;50.158;8.626;2023-07-30T01:52:15;20.50;99.90
16174;DHT22;14031;50.158;8.626;2023-07-30T01:54:43;20.50;99.90
16174;DHT22;14031;50.158;8.626;2023-07-30T01:57:10;20.40;99.90
16174;DHT22;14031;50.158;8.626;2023-07-30T01:59:38;20.40;99.90
16174;DHT22;14031;50.158;8.626;2023-07-30T02:02:05;20.40;99.90
16174;DHT22;14031;50.158;8.626;2023-07-30T02:04:33;20.40;99.90
16174;DHT22;14031;50.158;8.626;2023-07-30T02:07:01;20.40;99.90
16174;DHT22;14031;50.158;8.626;2023-07-30T02:09:28;20.40;99.90
16174;DHT22;14031;50.158;8.626;2023-07-30T02:11:56;20.40;99.90
16174;DHT22;14031;50.158;8.626;2023-07-30T02:14:23;20.40;99.90
16174;DHT22;14031;50.158;8.626;2023-07-30T02:16:49;20.40;99.90
16174;DHT22;14031;50.158;8.626;2023-07-30T02:19:17;20.40;99.90
16174;DHT22;14031;50.158;8.626;2023-07-30T02:21:43;20.40;99.90
16174;DHT22;14031;50.158;8.626;2023-07-30T02:24:13;20.40;99.90
16174;DHT22;14031;50.158;8.626;2023-07-30T02:26:41;20.40;99.90
16174;DHT22;14031;50.158;8.626;2023-07-30T02:29:09;20.40;99.90
16174;DHT22;14031;50.158;8.626;2023-07-30T02:31:36;20.30;99.90
16174;DHT22;14031;50.158;8.626;2023-07-30T02:34:03;20.40;99.90
16174;DHT22;14031;50.158;8.626;2023-07-30T02:36:30;20.30;99.90
16174;DHT22;14031;50.158;8.626;2023-07-30T02:38:57;20.30;99.90
16174;DHT22;14031;50.158;8.626;2023-07-30T02:41:25;20.30;99.90
16174;DHT22;14031;50.158;8.626;2023-07-30T02:43:54;20.30;99.90
16174;DHT22;14031;50.158;8.626;2023-07-30T02:46:23;20.30;99.90
16174;DHT22;14031;50.158;8.626;2023-07-30T02:48:52;20.30;99.90
16174;DHT22;14031;50.158;8.626;2023-07-30T02:51:43;20.30;99.90
16174;DHT22;14031;50.158;8.626;2023-07-30T02:54:43;20.30;99.90
16174;DHT22;14031;50.158;8.626;2023-07-30T02:57:23;20.30;99.90
16174;DHT22;14031;50.158;8.626;2023-07-30T03:00:14;20.20;99.90
16174;DHT22;14031;50.158;8.626;2023-07-30T03:09:00;20.30;99.90
16174;DHT22;14031;50.158;8.626;2023-07-30T03:11:47;20.20;99.90
16174;DHT22;14031;50.158;8.626;2023-07-30T03:17:46;20.20;99.90
16174;DHT22;14031;50.158;8.626;2023-07-30T03:20:29;20.30;99.90
16174;DHT22;14031;50.158;8.626;2023-07-30T03:26:24;20.20;99.90
16174;DHT22;14031;50.158;8.626;2023-07-30T03:28:57;20.20;99.90
16174;DHT22;14031;50.158;8.626;2023-07-30T03:31:51;20.20;99.90
16174;DHT22;14031;50.158;8.626;2023-07-30T03:40:47;20.20;99.90
16174;DHT22;14031;50.158;8.626;2023-07-30T03:46:30;20.20;99.90
16174;DHT22;14031;50.158;8.626;2023-07-30T03:49:01;20.20;99.90
16174;DHT22;14031;50.158;8.626;2023-07-30T03:51:31;20.20;99.90
16174;DHT22;14031;50.158;8.626;2023-07-30T03:54:15;20.10;99.90
16174;DHT22;14031;50.158;8.626;2023-07-30T03:56:51;20.00;99.90
16174;DHT22;14031;50.158;8.626;2023-07-30T03:59:53;20.20;99.90
16174;DHT22;14031;50.158;8.626;2023-07-30T04:02:36;20.10;99.90
16174;DHT22;14031;50.158;8.626;2023-07-30T04:05:13;20.00;99.90
16174;DHT22;14031;50.158;8.626;2023-07-30T04:07:56;20.00;99.90
16174;DHT22;14031;50.158;8.626;2023-07-30T04:10:46;19.90;99.90
16174;DHT22;14031;50.158;8.626;2023-07-30T04:13:41;19.90;99.90
16174;DHT22;14031;50.158;8.626;2023-07-30T04:16:12;19.90;99.90
16174;DHT22;14031;50.158;8.626;2023-07-30T04:18:39;19.90;99.90
16174;DHT22;14031;50.158;8.626;2023-07-30T04:21:16;19.90;99.90
16174;DHT22;14031;50.158;8.626;2023-07-30T04:23:44;19.90;99.90
16174;DHT22;14031;50.158;8.626;2023-07-30T04:26:12;19.90;99.90
16174;DHT22;14031;50.158;8.626;2023-07-30T04:28:58;19.90;99.90
16174;DHT22;14031;50.158;8.626;2023-07-30T04:31:30;19.90;99.90
16174;DHT22;14031;50.158;8.626;2023-07-30T04:34:15;19.90;99.90
16174;DHT22;14031;50.158;8.626;2023-07-30T04:36:47;20.00;99.90
16174;DHT22;14031;50.158;8.626;2023-07-30T04:39:17;19.90;99.90
16174;DHT22;14031;50.158;8.626;2023-07-30T04:41:46;19.90;99.90
16174;DHT22;14031;50.158;8.626;2023-07-30T04:44:16;19.70;99.90
16174;DHT22;14031;50.158;8.626;2023-07-30T04:46:55;19.90;99.90
16174;DHT22;14031;50.158;8.626;2023-07-30T04:52:09;19.90;99.90
16174;DHT22;14031;50.158;8.626;2023-07-30T04:54:37;19.90;99.90
16174;DHT22;14031;50.158;8.626;2023-07-30T04:57:08;20.00;99.90
16174;DHT22;14031;50.158;8.626;2023-07-30T04:59:54;20.00;99.90
16174;DHT22;14031;50.158;8.626;2023-07-30T05:02:24;20.00;99.90
16174;DHT22;14031;50.158;8.626;2023-07-30T05:05:01;20.10;99.90
16174;DHT22;14031;50.158;8.626;2023-07-30T05:10:30;20.10;99.90
16174;DHT22;14031;50.158;8.626;2023-07-30T05:12:57;20.10;99.90
16174;DHT22;14031;50.158;8.626;2023-07-30T05:15:30;20.10;99.90
16174;DHT22;14031;50.158;8.626;2023-07-30T05:18:00;20.10;99.90
16174;DHT22;14031;50.158;8.626;2023-07-30T05:20:33;20.20;99.90
16174;DHT22;14031;50.158;8.626;2023-07-30T05:23:19;20.20;99.90
16174;DHT22;14031;50.158;8.626;2023-07-30T05:25:49;20.20;99.90
16174;DHT22;14031;50.158;8.626;2023-07-30T05:28:22;20.20;99.90
16174;DHT22;14031;50.158;8.626;2023-07-30T05:30:49;20.30;99.90
16174;DHT22;14031;50.158;8.626;2023-07-30T05:33:23;20.30;99.90
16174;DHT22;14031;50.158;8.626;2023-07-30T05:35:50;20.40;99.90
16174;DHT22;14031;50.158;8.626;2023-07-30T05:38:17;20.40;99.90
16174;DHT22;14031;50.158;8.626;2023-07-30T05:40:50;20.50;99.90
16174;DHT22;14031;50.158;8.626;2023-07-30T05:43:19;20.60;99.90
16174;DHT22;14031;50.158;8.626;2023-07-30T05:45:55;20.50;99.90
16174;DHT22;14031;50.158;8.626;2023-07-30T05:48:44;20.60;99.90
16174;DHT22;14031;50.158;8.626;2023-07-30T05:51:14;20.70;99.90
16174;DHT22;14031;50.158;8.626;2023-07-30T05:53:41;20.60;99.90
16174;DHT22;14031;50.158;8.626;2023-07-30T05:56:08;20.70;99.90
16174;DHT22;14031;50.158;8.626;2023-07-30T05:58:36;20.90;99.90
16174;DHT22;14031;50.158;8.626;2023-07-30T06:01:02;20.80;99.90
16174;DHT22;14031;50.158;8.626;2023-07-30T06:03:29;20.80;99.90
16174;DHT22;14031;50.158;8.626;2023-07-30T06:06:02;20.90;99.90
16174;DHT22;14031;50.158;8.626;2023-07-30T06:08:29;20.70;99.90
16174;DHT22;14031;50.158;8.626;2023-07-30T06:11:01;20.90;99.90
16174;DHT22;14031;50.158;8.626;2023-07-30T06:13:28;21.00;99.90
16174;DHT22;14031;50.158;8.626;2023-07-30T06:15:55;21.00;99.90
16174;DHT22;14031;50.158;8.626;2023-07-30T06:18:23;21.00;99.90
16174;DHT22;14031;50.158;8.626;2023-07-30T06:20:51;21.10;99.90
16174;DHT22;14031;50.158;8.626;2023-07-30T06:23:19;21.20;99.90
16174;DHT22;14031;50.158;8.626;2023-07-30T06:25:55;21.30;99.90
16174;DHT22;14031;50.158;8.626;2023-07-30T06:28:22;21.40;99.90
16174;DHT22;14031;50.158;8.626;2023-07-30T06:30:50;21.60;99.90
16174;DHT22;14031;50.158;8.626;2023-07-30T06:33:16;21.60;99.90
16174;DHT22;14031;50.158;8.626;2023-07-30T06:35:43;21.70;99.90
16174;DHT22;14031;50.158;8.626;2023-07-30T06:38:10;21.90;99.90
16174;DHT22;14031;50.158;8.626;2023-07-30T06:40:38;21.90;99.90
16174;DHT22;14031;50.158;8.626;2023-07-30T06:43:07;22.00;99.90
16174;DHT22;14031;50.158;8.626;2023-07-30T06:45:34;21.90;99.90
16174;DHT22;14031;50.158;8.626;2023-07-30T06:48:01;22.00;99.90
16174;DHT22;14031;50.158;8.626;2023-07-30T06:50:37;22.00;99.90
16174;DHT22;14031;50.158;8.626;2023-07-30T06:53:04;22.10;99.90
16174;DHT22;14031;50.158;8.626;2023-07-30T06:55:32;22.10;99.90
16174;DHT22;14031;50.158;8.626;2023-07-30T06:58:00;22.20;99.90
16174;DHT22;14031;50.158;8.626;2023-07-30T07:00:27;22.20;99.90
16174;DHT22;14031;50.158;8.626;2023-07-30T07:02:55;22.20;99.90
16174;DHT22;14031;50.158;8.626;2023-07-30T07:05:22;22.30;99.90
16174;DHT22;14031;50.158;8.626;2023-07-30T07:07:49;22.40;99.90
16174;DHT22;14031;50.158;8.626;2023-07-30T07:10:15;22.50;99.90
16174;DHT22;14031;50.158;8.626;2023-07-30T07:12:47;22.60;99.90
16174;DHT22;14031;50.158;8.626;2023-07-30T07:15:20;22.50;99.90
16174;DHT22;14031;50.158;8.626;2023-07-30T07:17:51;22.60;99.90
16174;DHT22;14031;50.158;8.626;2023-07-30T07:20:21;22.50;99.90
16174;DHT22;14031;50.158;8.626;2023-07-30T07:22:50;22.60;99.90
16174;DHT22;14031;50.158;8.626;2023-07-30T07:25:24;22.50;99.90
16174;DHT22;14031;50.158;8.626;2023-07-30T07:27:52;22.40;99.90
16174;DHT22;14031;50.158;8.626;2023-07-30T07:30:28;22.40;99.90
16174;DHT22;14031;50.158;8.626;2023-07-30T07:33:19;22.30;99.90
16174;DHT22;14031;50.158;8.626;2023-07-30T07:35:48;22.10;99.90
16174;DHT22;14031;50.158;8.626;2023-07-30T07:38:32;22.10;99.90
16174;DHT22;14031;50.158;8.626;2023-07-30T07:41:02;22.00;99.90
16174;DHT22;14031;50.158;8.626;2023-07-30T07:43:29;22.00;99.90
16174;DHT22;14031;50.158;8.626;2023-07-30T07:45:57;22.00;99.90
16174;DHT22;14031;50.158;8.626;2023-07-30T07:48:24;22.00;99.90
16174;DHT22;14031;50.158;8.626;2023-07-30T07:50:50;22.10;99.90
16174;DHT22;14031;50.158;8.626;2023-07-30T07:53:18;22.20;99.90
16174;DHT22;14031;50.158;8.626;2023-07-30T07:55:45;22.40;99.90
16174;DHT22;14031;50.158;8.626;2023-07-30T07:58:12;22.60;99.90
16174;DHT22;14031;50.158;8.626;2023-07-30T08:00:39;22.80;99.90
16174;DHT22;14031;50.158;8.626;2023-07-30T08:03:08;22.90;99.90
16174;DHT22;14031;50.158;8.626;2023-07-30T08:05:35;23.00;99.90
16174;DHT22;14031;50.158;8.626;2023-07-30T08:08:02;23.10;99.90
16174;DHT22;14031;50.158;8.626;2023-07-30T08:10:29;23.30;99.90
16174;DHT22;14031;50.158;8.626;2023-07-30T08:12:56;23.40;99.90
16174;DHT22;14031;50.158;8.626;2023-07-30T08:15:24;23.50;99.90
16174;DHT22;14031;50.158;8.626;2023-07-30T08:17:55;23.60;99.90
16174;DHT22;14031;50.158;8.626;2023-07-30T08:23:55;23.80;99.90
16174;DHT22;14031;50.158;8.626;2023-07-30T08:26:32;23.90;99.90
16174;DHT22;14031;50.158;8.626;2023-07-30T08:28:59;23.90;99.90
16174;DHT22;14031;50.158;8.626;2023-07-30T08:31:26;23.90;99.90
16174;DHT22;14031;50.158;8.626;2023-07-30T08:34:00;24.00;99.90
16174;DHT22;14031;50.158;8.626;2023-07-30T08:36:28;24.10;99.90
16174;DHT22;14031;50.158;8.626;2023-07-30T08:38:57;24.10;99.90
16174;DHT22;14031;50.158;8.626;2023-07-30T08:41:26;24.30;99.90
16174;DHT22;14031;50.158;8.626;2023-07-30T08:43:53;24.40;99.90
16174;DHT22;14031;50.158;8.626;2023-07-30T08:46:20;24.60;99.90
16174;DHT22;14031;50.158;8.626;2023-07-30T08:48:48;24.70;99.90
16174;DHT22;14031;50.158;8.626;2023-07-30T08:51:15;24.70;99.90
16174;DHT22;14031;50.158;8.626;2023-07-30T08:53:42;24.70;99.90
16174;DHT22;14031;50.158;8.626;2023-07-30T08:56:10;24.70;99.90
16174;DHT22;14031;50.158;8.626;2023-07-30T08:58:38;24.60;99.90
16174;DHT22;14031;50.158;8.626;2023-07-30T09:01:08;24.50;99.90
16174;DHT22;14031;50.158;8.626;2023-07-30T09:03:38;24.50;99.90
16174;DHT22;14031;50.158;8.626;2023-07-30T09:06:05;24.50;99.90
16174;DHT22;14031;50.158;8.626;2023-07-30T09:08:32;24.60;99.90
16174;DHT22;14031;50.158;8.626;2023-07-30T09:11:06;24.50;99.90
16174;DHT22;14031;50.158;8.626;2023-07-30T09:13:38;24.60;99.90
16174;DHT22;14031;50.158;8.626;2023-07-30T09:16:09;24.60;99.90
16174;DHT22;14031;50.158;8.626;2023-07-30T09:18:40;24.70;99.90
16174;DHT22;14031;50.158;8.626;2023-07-30T09:21:07;24.70;99.90
16174;DHT22;14031;50.158;8.626;2023-07-30T09:23:39;24.70;99.90
16174;DHT22;14031;50.158;8.626;2023-07-30T09:26:06;24.60;99.90
16174;DHT22;14031;50.158;8.626;2023-07-30T09:28:33;24.50;99.90
16174;DHT22;14031;50.158;8.626;2023-07-30T09:31:02;24.30;99.90
16174;DHT22;14031;50.158;8.626;2023-07-30T09:33:29;24.10;99.90
16174;DHT22;14031;50.158;8.626;2023-07-30T09:35:55;23.90;99.90
16174;DHT22;14031;50.158;8.626;2023-07-30T09:38:22;23.70;99.90
16174;DHT22;14031;50.158;8.626;2023-07-30T09:40:51;23.40;99.90
16174;DHT22;14031;50.158;8.626;2023-07-30T09:43:18;23.30;99.90
16174;DHT22;14031;50.158;8.626;2023-07-30T09:45:46;23.10;99.90
16174;DHT22;14031;50.158;8.626;2023-07-30T09:48:18;22.90;99.90
16174;DHT22;14031;50.158;8.626;2023-07-30T09:50:48;22.70;99.90
16174;DHT22;14031;50.158;8.626;2023-07-30T09:53:15;22.50;99.90
16174;DHT22;14031;50.158;8.626;2023-07-30T09:55:43;22.20;99.90
16174;DHT22;14031;50.158;8.626;2023-07-30T09:58:09;22.00;99.90
16174;DHT22;14031;50.158;8.626;2023-07-30T10:00:37;21.80;99.90
16174;DHT22;14031;50.158;8.626;2023-07-30T10:03:05;21.60;99.90
16174;DHT22;14031;50.158;8.626;2023-07-30T10:05:35;21.50;99.90
16174;DHT22;14031;50.158;8.626;2023-07-30T10:08:09;21.40;99.90
16174;DHT22;14031;50.158;8.626;2023-07-30T10:10:37;21.50;99.90
16174;DHT22;14031;50.158;8.626;2023-07-30T10:13:06;21.50;99.90
16174;DHT22;14031;50.158;8.626;2023-07-30T10:15:35;21.30;99.90
16174;DHT22;14031;50.158;8.626;2023-07-30T10:18:08;21.20;99.90
16174;DHT22;14031;50.158;8.626;2023-07-30T10:20:39;21.10;99.90
16174;DHT22;14031;50.158;8.626;2023-07-30T10:23:08;21.10;99.90
16174;DHT22;14031;50.158;8.626;2023-07-30T10:25:47;20.90;99.90
16174;DHT22;14031;50.158;8.626;2023-07-30T10:28:31;21.20;99.90
16174;DHT22;14031;50.158;8.626;2023-07-30T10:34:43;21.40;99.90
16174;DHT22;14031;50.158;8.626;2023-07-30T10:37:26;21.70;99.90
16174;DHT22;14031;50.158;8.626;2023-07-30T10:39:57;21.90;99.90
16174;DHT22;14031;50.158;8.626;2023-07-30T10:42:33;22.00;99.90
16174;DHT22;14031;50.158;8.626;2023-07-30T10:45:25;22.10;99.90
16174;DHT22;14031;50.158;8.626;2023-07-30T10:47:54;22.10;99.90
16174;DHT22;14031;50.158;8.626;2023-07-30T10:50:30;22.10;99.90
16174;DHT22;14031;50.158;8.626;2023-07-30T10:53:07;22.20;99.90
16174;DHT22;14031;50.158;8.626;2023-07-30T10:55:34;22.30;99.90
16174;DHT22;14031;50.158;8.626;2023-07-30T10:58:01;22.40;99.90
16174;DHT22;14031;50.158;8.626;2023-07-30T11:00:29;22.50;99.90
16174;DHT22;14031;50.158;8.626;2023-07-30T11:02:57;22.70;99.90
16174;DHT22;14031;50.158;8.626;2023-07-30T11:05:24;22.60;99.90
16174;DHT22;14031;50.158;8.626;2023-07-30T11:07:51;22.80;99.90
16174;DHT22;14031;50.158;8.626;2023-07-30T11:10:27;22.70;99.90
16174;DHT22;14031;50.158;8.626;2023-07-30T11:13:16;22.70;99.90
16174;DHT22;14031;50.158;8.626;2023-07-30T11:15:43;22.70;99.90
16174;DHT22;14031;50.158;8.626;2023-07-30T11:18:13;22.80;99.90
16174;DHT22;14031;50.158;8.626;2023-07-30T11:20:39;22.90;99.90
16174;DHT22;14031;50.158;8.626;2023-07-30T11:23:25;23.00;99.90
16174;DHT22;14031;50.158;8.626;2023-07-30T11:26:03;23.30;99.90
16174;DHT22;14031;50.158;8.626;2023-07-30T11:28:31;23.60;99.90
16174;DHT22;14031;50.158;8.626;2023-07-30T11:34:22;24.00;99.90
16174;DHT22;14031;50.158;8.626;2023-07-30T11:36:50;24.10;99.90
16174;DHT22;14031;50.158;8.626;2023-07-30T11:39:17;23.90;99.90
16174;DHT22;14031;50.158;8.626;2023-07-30T11:41:46;23.70;99.90
16174;DHT22;14031;50.158;8.626;2023-07-30T11:44:30;23.60;99.90
16174;DHT22;14031;50.158;8.626;2023-07-30T11:46:57;23.50;99.90
16174;DHT22;14031;50.158;8.626;2023-07-30T11:49:24;23.50;99.90
16174;DHT22;14031;50.158;8.626;2023-07-30T11:51:51;23.40;99.90
16174;DHT22;14031;50.158;8.626;2023-07-30T11:54:30;23.40;99.90
16174;DHT22;14031;50.158;8.626;2023-07-30T11:56:59;23.30;99.90
16174;DHT22;14031;50.158;8.626;2023-07-30T11:59:26;23.40;99.90
16174;DHT22;14031;50.158;8.626;2023-07-30T12:01:53;23.40;99.90
16174;DHT22;14031;50.158;8.626;2023-07-30T12:04:20;23.50;99.90
16174;DHT22;14031;50.158;8.626;2023-07-30T12:06:49;23.60;99.90
16174;DHT22;14031;50.158;8.626;2023-07-30T12:09:18;23.70;99.90
16174;DHT22;14031;50.158;8.626;2023-07-30T12:11:48;23.80;99.90
16174;DHT22;14031;50.158;8.626;2023-07-30T12:14:17;23.70;99.90
16174;DHT22;14031;50.158;8.626;2023-07-30T12:16:44;23.70;99.90
16174;DHT22;14031;50.158;8.626;2023-07-30T12:19:11;23.60;99.90
16174;DHT22;14031;50.158;8.626;2023-07-30T12:21:38;23.50;99.90
16174;DHT22;14031;50.158;8.626;2023-07-30T12:24:05;23.50;99.90
16174;DHT22;14031;50.158;8.626;2023-07-30T12:26:32;23.50;99.90
16174;DHT22;14031;50.158;8.626;2023-07-30T12:28:58;23.50;99.90
16174;DHT22;14031;50.158;8.626;2023-07-30T12:31:26;23.50;99.90
16174;DHT22;14031;50.158;8.626;2023-07-30T12:33:53;23.50;99.90
16174;DHT22;14031;50.158;8.626;2023-07-30T12:36:20;23.70;99.90
16174;DHT22;14031;50.158;8.626;2023-07-30T12:38:47;24.00;99.90
16174;DHT22;14031;50.158;8.626;2023-07-30T12:41:13;24.20;99.90
16174;DHT22;14031;50.158;8.626;2023-07-30T12:43:40;24.40;99.90
16174;DHT22;14031;50.158;8.626;2023-07-30T12:46:07;24.40;99.90
16174;DHT22;14031;50.158;8.626;2023-07-30T12:48:35;24.60;99.90
16174;DHT22;14031;50.158;8.626;2023-07-30T12:51:02;24.60;99.90
16174;DHT22;14031;50.158;8.626;2023-07-30T12:53:29;24.70;99.90
16174;DHT22;14031;50.158;8.626;2023-07-30T12:55:55;24.90;99.90
16174;DHT22;14031;50.158;8.626;2023-07-30T12:58:22;25.10;99.90
16174;DHT22;14031;50.158;8.626;2023-07-30T13:00:49;25.30;99.90
16174;DHT22;14031;50.158;8.626;2023-07-30T13:03:16;25.50;99.90
16174;DHT22;14031;50.158;8.626;2023-07-30T13:05:44;25.70;99.90
16174;DHT22;14031;50.158;8.626;2023-07-30T13:08:11;25.80;99.90
16174;DHT22;14031;50.158;8.626;2023-07-30T13:10:37;26.10;99.90
16174;DHT22;14031;50.158;8.626;2023-07-30T13:13:04;26.30;99.90
16174;DHT22;14031;50.158;8.626;2023-07-30T13:15:31;26.20;99.90
16174;DHT22;14031;50.158;8.626;2023-07-30T13:17:58;26.20;99.90
16174;DHT22;14031;50.158;8.626;2023-07-30T13:20:24;26.00;99.90
16174;DHT22;14031;50.158;8.626;2023-07-30T13:22:53;25.70;99.90
16174;DHT22;14031;50.158;8.626;2023-07-30T13:25:19;25.60;99.90
16174;DHT22;14031;50.158;8.626;2023-07-30T13:27:46;25.70;99.90
16174;DHT22;14031;50.158;8.626;2023-07-30T13:30:13;25.70;99.90
16174;DHT22;14031;50.158;8.626;2023-07-30T13:32:40;25.90;99.90
16174;DHT22;14031;50.158;8.626;2023-07-30T13:35:07;26.10;99.90
16174;DHT22;14031;50.158;8.626;2023-07-30T13:37:34;26.60;99.90
16174;DHT22;14031;50.158;8.626;2023-07-30T13:40:02;27.10;99.90
16174;DHT22;14031;50.158;8.626;2023-07-30T13:42:29;26.90;99.90
16174;DHT22;14031;50.158;8.626;2023-07-30T13:44:55;26.50;99.90
16174;DHT22;14031;50.158;8.626;2023-07-30T13:47:22;26.20;99.90
16174;DHT22;14031;50.158;8.626;2023-07-30T13:49:49;25.80;99.90
16174;DHT22;14031;50.158;8.626;2023-07-30T13:52:16;25.70;99.90
16174;DHT22;14031;50.158;8.626;2023-07-30T13:54:42;25.90;99.90
16174;DHT22;14031;50.158;8.626;2023-07-30T13:57:12;26.00;99.90
16174;DHT22;14031;50.158;8.626;2023-07-30T13:59:38;26.20;99.90
16174;DHT22;14031;50.158;8.626;2023-07-30T14:02:09;26.60;99.90
16174;DHT22;14031;50.158;8.626;2023-07-30T14:04:36;26.90;99.90
16174;DHT22;14031;50.158;8.626;2023-07-30T14:07:03;27.30;99.90
16174;DHT22;14031;50.158;8.626;2023-07-30T14:09:30;27.90;99.90
16174;DHT22;14031;50.158;8.626;2023-07-30T14:12:00;28.40;99.90
16174;DHT22;14031;50.158;8.626;2023-07-30T14:14:28;28.50;99.90
16174;DHT22;14031;50.158;8.626;2023-07-30T14:16:55;28.20;99.90
16174;DHT22;14031;50.158;8.626;2023-07-30T14:19:22;27.70;99.90
16174;DHT22;14031;50.158;8.626;2023-07-30T14:21:49;27.20;99.90
16174;DHT22;14031;50.158;8.626;2023-07-30T14:24:16;26.80;99.90
16174;DHT22;14031;50.158;8.626;2023-07-30T14:26:43;26.50;99.90
16174;DHT22;14031;50.158;8.626;2023-07-30T14:29:10;26.10;99.90
16174;DHT22;14031;50.158;8.626;2023-07-30T14:31:38;25.80;99.90
16174;DHT22;14031;50.158;8.626;2023-07-30T14:34:04;25.70;99.90
16174;DHT22;14031;50.158;8.626;2023-07-30T14:36:31;25.70;99.90
16174;DHT22;14031;50.158;8.626;2023-07-30T14:38:58;25.90;99.90
16174;DHT22;14031;50.158;8.626;2023-07-30T14:41:25;26.70;99.90
16174;DHT22;14031;50.158;8.626;2023-07-30T14:43:51;27.80;99.90
16174;DHT22;14031;50.158;8.626;2023-07-30T14:46:18;28.70;99.90
16174;DHT22;14031;50.158;8.626;2023-07-30T14:48:46;29.20;99.90
16174;DHT22;14031;50.158;8.626;2023-07-30T14:51:13;29.30;99.90
16174;DHT22;14031;50.158;8.626;2023-07-30T14:53:40;29.50;99.90
16174;DHT22;14031;50.158;8.626;2023-07-30T14:56:06;29.80;99.90
16174;DHT22;14031;50.158;8.626;2023-07-30T14:58:33;29.80;99.90
16174;DHT22;14031;50.158;8.626;2023-07-30T15:01:00;29.40;99.90
16174;DHT22;14031;50.158;8.626;2023-07-30T15:03:27;28.90;99.90
16174;DHT22;14031;50.158;8.626;2023-07-30T15:05:55;28.80;99.90
16174;DHT22;14031;50.158;8.626;2023-07-30T15:08:22;28.80;99.90
16174;DHT22;14031;50.158;8.626;2023-07-30T15:10:48;29.00;99.90
16174;DHT22;14031;50.158;8.626;2023-07-30T15:13:15;29.50;99.90
16174;DHT22;14031;50.158;8.626;2023-07-30T15:15:43;29.80;99.90
16174;DHT22;14031;50.158;8.626;2023-07-30T15:18:10;30.40;99.90
16174;DHT22;14031;50.158;8.626;2023-07-30T15:20:36;31.00;99.90
16174;DHT22;14031;50.158;8.626;2023-07-30T15:23:05;31.50;99.30
16174;DHT22;14031;50.158;8.626;2023-07-30T15:25:31;31.70;98.90
16174;DHT22;14031;50.158;8.626;2023-07-30T15:27:58;32.00;97.40
16174;DHT22;14031;50.158;8.626;2023-07-30T15:30:26;32.00;94.70
16174;DHT22;14031;50.158;8.626;2023-07-30T15:32:53;32.00;96.80
16174;DHT22;14031;50.158;8.626;2023-07-30T15:35:20;32.20;94.30
16174;DHT22;14031;50.158;8.626;2023-07-30T15:37:47;32.40;94.60
16174;DHT22;14031;50.158;8.626;2023-07-30T15:40:15;32.80;94.80
16174;DHT22;14031;50.158;8.626;2023-07-30T15:42:42;33.00;91.70
16174;DHT22;14031;50.158;8.626;2023-07-30T15:45:09;32.40;90.80
16174;DHT22;14031;50.158;8.626;2023-07-30T15:47:36;31.90;91.50
16174;DHT22;14031;50.158;8.626;2023-07-30T15:50:05;31.30;93.10
16174;DHT22;14031;50.158;8.626;2023-07-30T15:52:32;30.60;91.90
16174;DHT22;14031;50.158;8.626;2023-07-30T15:54:59;30.50;94.90
16174;DHT22;14031;50.158;8.626;2023-07-30T15:57:27;31.00;94.50
16174;DHT22;14031;50.158;8.626;2023-07-30T15:59:54;31.70;93.80
16174;DHT22;14031;50.158;8.626;2023-07-30T16:02:21;32.20;92.10
16174;DHT22;14031;50.158;8.626;2023-07-30T16:04:48;32.50;91.10
16174;DHT22;14031;50.158;8.626;2023-07-30T16:07:15;32.60;90.40
16174;DHT22;14031;50.158;8.626;2023-07-30T16:09:57;33.00;91.20
16174;DHT22;14031;50.158;8.626;2023-07-30T16:12:26;33.40;89.10
16174;DHT22;14031;50.158;8.626;2023-07-30T16:14:53;33.50;87.10
16174;DHT22;14031;50.158;8.626;2023-07-30T16:17:20;33.30;87.30
16174;DHT22;14031;50.158;8.626;2023-07-30T16:19:47;33.00;83.30
16174;DHT22;14031;50.158;8.626;2023-07-30T16:22:14;32.90;88.00
16174;DHT22;14031;50.158;8.626;2023-07-30T16:24:40;32.90;84.50